createdAt,value
2023-05-16T00:00:48.853Z,6.57
2023-05-16T00:03:15.558Z,7.88
2023-05-16T00:05:42.249Z,5.78
2023-05-16T00:08:08.696Z,6.53
2023-05-16T00:10:35.629Z,7.90
2023-05-16T00:13:02.233Z,4.78
2023-05-16T00:15:30.092Z,7.22
2023-05-16T00:17:59.824Z,7.45
2023-05-16T00:20:28.278Z,6.80
2023-05-16T00:22:55.506Z,5.88
2023-05-16T00:25:22.051Z,6.32
2023-05-16T00:27:48.579Z,7.00
2023-05-16T00:30:15.104Z,6.95
2023-05-16T00:32:41.564Z,5.40
2023-05-16T00:35:10.612Z,5.55
2023-05-16T00:37:38.609Z,4.07
2023-05-16T00:40:05.802Z,4.35
2023-05-16T00:42:32.637Z,4.20
2023-05-16T00:44:59.681Z,3.33
2023-05-16T00:47:26.285Z,3.20
2023-05-16T00:49:52.960Z,3.53
2023-05-16T00:52:19.807Z,2.92
2023-05-16T00:54:46.346Z,2.47
2023-05-16T00:57:12.840Z,2.85
2023-05-16T00:59:40.198Z,2.20
2023-05-16T01:02:06.718Z,2.75
2023-05-16T01:04:33.639Z,2.95
2023-05-16T01:07:01.447Z,3.83
2023-05-16T01:09:28.297Z,3.67
2023-05-16T01:12:32.628Z,3.47
2023-05-16T01:15:09.459Z,2.40
2023-05-16T01:18:22.575Z,2.50
2023-05-16T01:21:09.382Z,3.55
2023-05-16T01:24:04.745Z,2.55
2023-05-16T01:26:32.620Z,2.97
2023-05-16T01:28:59.796Z,2.70
2023-05-16T01:31:26.309Z,2.28
2023-05-16T01:33:52.815Z,2.45
2023-05-16T01:36:25.928Z,3.00
2023-05-16T01:39:22.750Z,2.67
2023-05-16T01:42:06.176Z,3.10
2023-05-16T01:44:44.565Z,2.90
2023-05-16T01:47:14.490Z,3.20
2023-05-16T01:49:54.321Z,3.38
2023-05-16T01:52:38.615Z,3.13
2023-05-16T01:55:12.258Z,3.65
2023-05-16T01:57:40.475Z,3.55
2023-05-16T02:00:08.621Z,3.33
2023-05-16T02:02:35.087Z,3.30
2023-05-16T02:05:01.576Z,3.63
2023-05-16T02:07:28.156Z,3.72
2023-05-16T02:09:54.597Z,3.80
2023-05-16T02:12:21.042Z,3.40
2023-05-16T02:14:47.497Z,4.13
2023-05-16T02:17:13.953Z,3.58
2023-05-16T02:19:40.496Z,4.05
2023-05-16T02:22:07.093Z,4.82
2023-05-16T02:24:33.993Z,3.85
2023-05-16T02:27:00.882Z,5.03
2023-05-16T02:29:27.380Z,4.10
2023-05-16T02:31:54.210Z,3.13
2023-05-16T02:34:20.642Z,4.00
2023-05-16T02:36:47.118Z,4.75
2023-05-16T02:39:13.612Z,4.35
2023-05-16T02:41:40.036Z,4.43
2023-05-16T02:44:06.489Z,3.78
2023-05-16T02:46:34.763Z,3.67
2023-05-16T02:49:01.859Z,3.80
2023-05-16T02:51:28.946Z,4.53
2023-05-16T02:54:01.048Z,4.28
2023-05-16T02:56:28.124Z,3.95
2023-05-16T02:58:56.165Z,3.53
2023-05-16T03:01:22.831Z,4.20
2023-05-16T03:03:49.583Z,4.28
2023-05-16T03:06:16.230Z,3.65
2023-05-16T03:08:42.730Z,3.20
2023-05-16T03:11:09.257Z,5.30
2023-05-16T03:13:35.713Z,4.32
2023-05-16T03:16:03.046Z,3.95
2023-05-16T03:18:29.567Z,3.10
2023-05-16T03:20:56.286Z,4.00
2023-05-16T03:23:22.985Z,3.47
2023-05-16T03:25:49.626Z,3.80
2023-05-16T03:28:17.861Z,3.38
2023-05-16T03:30:44.303Z,3.45
2023-05-16T03:33:10.894Z,3.47
2023-05-16T03:35:38.105Z,3.92
2023-05-16T03:38:04.677Z,4.30
2023-05-16T03:40:31.396Z,3.38
2023-05-16T03:42:57.970Z,2.38
2023-05-16T03:45:24.601Z,3.80
2023-05-16T03:47:51.260Z,2.88
2023-05-16T03:50:18.159Z,3.70
2023-05-16T03:52:44.732Z,2.97
2023-05-16T03:55:14.195Z,4.07
2023-05-16T03:57:42.229Z,3.10
2023-05-16T04:00:11.078Z,3.10
2023-05-16T04:02:37.773Z,3.95
2023-05-16T04:05:04.714Z,3.72
2023-05-16T04:07:31.185Z,3.13
2023-05-16T04:09:58.722Z,3.30
2023-05-16T04:12:25.268Z,3.10
2023-05-16T04:14:51.761Z,3.70
2023-05-16T04:17:18.226Z,3.67
2023-05-16T04:19:45.290Z,3.83
2023-05-16T04:22:11.780Z,3.92
2023-05-16T04:24:38.351Z,3.25
2023-05-16T04:27:05.313Z,3.42
2023-05-16T04:29:32.365Z,3.88
2023-05-16T04:31:58.821Z,3.83
2023-05-16T04:34:27.888Z,3.70
2023-05-16T04:36:55.488Z,4.40
2023-05-16T04:39:22.339Z,3.65
2023-05-16T04:41:48.796Z,3.90
2023-05-16T04:44:15.355Z,4.82
2023-05-16T04:46:41.902Z,3.83
2023-05-16T04:49:08.532Z,3.58
2023-05-16T04:51:34.986Z,3.72
2023-05-16T04:54:01.430Z,3.85
2023-05-16T04:56:27.920Z,3.42
2023-05-16T04:58:54.761Z,4.07
2023-05-16T05:01:21.428Z,3.40
2023-05-16T05:03:48.501Z,3.40
2023-05-16T05:06:15.220Z,4.40
2023-05-16T05:08:41.711Z,4.38
2023-05-16T05:11:08.213Z,3.92
2023-05-16T05:13:34.644Z,4.03
2023-05-16T05:16:02.106Z,4.15
2023-05-16T05:18:28.763Z,3.45
2023-05-16T05:20:55.315Z,4.10
2023-05-16T05:23:21.935Z,3.33
2023-05-16T05:25:48.529Z,3.97
2023-05-16T05:28:15.017Z,3.80
2023-05-16T05:30:43.252Z,3.20
2023-05-16T05:33:11.791Z,3.28
2023-05-16T05:35:38.444Z,3.38
2023-05-16T05:38:04.874Z,3.58
2023-05-16T05:40:31.351Z,4.13
2023-05-16T05:42:57.858Z,3.40
2023-05-16T05:45:24.324Z,3.70
2023-05-16T05:47:51.080Z,3.30
2023-05-16T05:50:17.691Z,3.50
2023-05-16T05:52:44.286Z,3.55
2023-05-16T05:55:10.923Z,3.92
2023-05-16T05:57:37.777Z,3.15
2023-05-16T06:00:05.195Z,2.63
2023-05-16T06:02:31.887Z,3.15
2023-05-16T06:04:58.487Z,4.07
2023-05-16T06:07:25.065Z,3.55
2023-05-16T06:09:52.079Z,3.78
2023-05-16T06:12:18.592Z,3.28
2023-05-16T06:14:45.066Z,3.53
2023-05-16T06:17:11.554Z,3.85
2023-05-16T06:19:38.149Z,3.30
2023-05-16T06:22:04.792Z,2.97
2023-05-16T06:24:31.530Z,3.17
2023-05-16T06:26:58.129Z,3.67
2023-05-16T06:29:24.600Z,2.97
2023-05-16T06:31:51.202Z,2.95
2023-05-16T06:34:17.671Z,3.40
2023-05-16T06:36:44.720Z,3.42
2023-05-16T06:39:11.191Z,5.53
2023-05-16T06:41:37.659Z,2.42
2023-05-16T06:44:05.061Z,2.30
2023-05-16T06:46:31.689Z,2.60
2023-05-16T06:48:58.214Z,2.60
2023-05-16T06:51:24.891Z,3.47
2023-05-16T06:53:51.417Z,2.70
2023-05-16T06:56:17.981Z,3.85
2023-05-16T06:58:44.562Z,3.20
2023-05-16T07:01:11.148Z,2.88
2023-05-16T07:03:37.806Z,0.95
2023-05-16T07:06:04.434Z,2.60
2023-05-16T07:08:30.970Z,1.98
2023-05-16T07:10:57.511Z,2.50
2023-05-16T07:13:24.017Z,2.22
2023-05-16T07:15:50.586Z,2.22
2023-05-16T07:18:17.117Z,2.47
2023-05-16T07:20:43.592Z,2.22
2023-05-16T07:23:10.255Z,2.50
2023-05-16T07:25:36.870Z,2.05
2023-05-16T07:28:03.689Z,1.92
2023-05-16T07:30:30.591Z,1.95
2023-05-16T07:32:57.581Z,1.90
2023-05-16T07:35:24.137Z,1.90
2023-05-16T07:37:50.645Z,1.75
2023-05-16T07:40:18.562Z,2.67
2023-05-16T07:42:46.066Z,1.65
2023-05-16T07:45:12.626Z,1.65
2023-05-16T07:47:39.192Z,2.03
2023-05-16T07:50:06.027Z,1.30
2023-05-16T07:52:32.509Z,1.77
2023-05-16T07:54:58.976Z,1.92
2023-05-16T07:57:25.728Z,2.10
2023-05-16T07:59:52.507Z,1.25
2023-05-16T08:02:19.425Z,2.05
2023-05-16T08:04:46.966Z,1.27
2023-05-16T08:07:13.626Z,2.10
2023-05-16T08:09:40.243Z,1.65
2023-05-16T08:12:07.199Z,1.50
2023-05-16T08:14:33.910Z,2.25
2023-05-16T08:17:00.897Z,2.17
2023-05-16T08:19:27.905Z,1.92
2023-05-16T08:21:54.988Z,1.63
2023-05-16T08:24:21.766Z,1.10
2023-05-16T08:26:48.322Z,1.85
2023-05-16T08:29:14.953Z,1.60
2023-05-16T08:31:41.584Z,1.40
2023-05-16T08:34:09.410Z,1.58
2023-05-16T08:36:37.643Z,1.10
2023-05-16T08:39:04.955Z,1.38
2023-05-16T08:41:31.670Z,1.40
2023-05-16T08:43:58.325Z,1.67
2023-05-16T08:46:26.548Z,1.92
2023-05-16T08:48:54.311Z,1.48
2023-05-16T08:51:21.510Z,1.15
2023-05-16T08:53:57.730Z,1.42
2023-05-16T08:56:25.173Z,1.92
2023-05-16T08:58:55.178Z,1.23
2023-05-16T09:01:23.047Z,1.55
2023-05-16T09:03:51.072Z,2.10
2023-05-16T09:06:17.903Z,1.20
2023-05-16T09:08:44.641Z,1.50
2023-05-16T09:11:11.297Z,1.73
2023-05-16T09:13:39.624Z,1.70
2023-05-16T09:16:14.785Z,1.13
2023-05-16T09:18:44.873Z,1.65
2023-05-16T09:21:12.298Z,1.45
2023-05-16T09:23:39.264Z,1.70
2023-05-16T09:26:08.041Z,1.50
2023-05-16T09:28:37.935Z,1.23
2023-05-16T09:31:04.584Z,1.20
2023-05-16T09:33:31.225Z,1.95
2023-05-16T09:35:59.821Z,1.50
2023-05-16T09:38:27.698Z,1.33
2023-05-16T09:40:55.508Z,2.60
2023-05-16T09:43:25.331Z,2.00
2023-05-16T09:45:52.463Z,1.67
2023-05-16T09:48:19.361Z,1.55
2023-05-16T09:50:52.911Z,1.35
2023-05-16T09:53:30.758Z,1.50
2023-05-16T09:56:08.431Z,1.00
2023-05-16T09:58:39.428Z,1.52
2023-05-16T10:01:07.285Z,1.13
2023-05-16T10:03:42.259Z,1.63
2023-05-16T10:06:09.352Z,0.75
2023-05-16T10:08:37.032Z,0.98
2023-05-16T10:11:05.826Z,1.77
2023-05-16T10:13:36.901Z,1.33
2023-05-16T10:16:10.141Z,1.25
2023-05-16T10:18:38.566Z,1.50
2023-05-16T10:21:10.419Z,1.27
2023-05-16T10:23:41.340Z,2.17
2023-05-16T10:26:09.309Z,1.60
2023-05-16T10:28:36.829Z,1.38
2023-05-16T10:31:04.713Z,1.00
2023-05-16T10:33:31.427Z,1.27
2023-05-16T10:35:58.874Z,1.35
2023-05-16T10:38:28.386Z,1.40
2023-05-16T10:40:55.753Z,2.55
2023-05-16T10:43:26.864Z,1.27
2023-05-16T10:46:03.896Z,1.05
2023-05-16T10:48:38.927Z,1.27
2023-05-16T10:51:23.751Z,1.38
2023-05-16T10:53:54.741Z,1.73
2023-05-16T10:56:26.505Z,1.40
2023-05-16T10:58:55.252Z,1.10
2023-05-16T11:01:29.505Z,1.02
2023-05-16T11:03:59.238Z,2.08
2023-05-16T11:06:29.952Z,1.65
2023-05-16T11:09:05.639Z,1.85
2023-05-16T11:11:49.100Z,2.17
2023-05-16T11:14:49.950Z,1.92
2023-05-16T11:17:21.673Z,1.60
2023-05-16T11:19:59.044Z,1.77
2023-05-16T11:22:29.645Z,1.77
2023-05-16T11:25:01.904Z,1.83
2023-05-16T11:27:37.311Z,1.48
2023-05-16T11:30:06.654Z,1.40
2023-05-16T11:32:38.183Z,1.40
2023-05-16T11:35:08.990Z,1.48
2023-05-16T11:37:45.059Z,1.60
2023-05-16T11:40:13.611Z,1.20
2023-05-16T11:42:42.534Z,1.70
2023-05-16T11:45:16.651Z,1.13
2023-05-16T11:47:45.677Z,1.35
2023-05-16T11:50:25.216Z,1.23
2023-05-16T11:52:54.336Z,1.30
2023-05-16T11:55:39.578Z,1.55
2023-05-16T11:58:08.439Z,1.05
2023-05-16T12:00:34.993Z,1.17
2023-05-16T12:03:05.022Z,0.77
2023-05-16T12:05:34.097Z,1.38
2023-05-16T12:08:02.655Z,0.88
2023-05-16T12:10:31.754Z,0.55
2023-05-16T12:12:58.638Z,1.35
2023-05-16T12:15:25.722Z,1.35
2023-05-16T12:17:53.030Z,1.10
2023-05-16T12:20:19.800Z,0.80
2023-05-16T12:22:47.130Z,1.40
2023-05-16T12:25:27.307Z,1.30
2023-05-16T12:27:59.816Z,0.82
2023-05-16T12:30:28.392Z,1.45
2023-05-16T12:32:58.732Z,1.00
2023-05-16T12:35:26.321Z,1.20
2023-05-16T12:37:53.350Z,1.35
2023-05-16T12:40:20.767Z,1.02
2023-05-16T12:43:12.769Z,1.10
2023-05-16T12:45:39.286Z,1.70
2023-05-16T12:48:08.719Z,1.00
2023-05-16T12:50:35.250Z,2.88
2023-05-16T12:53:01.800Z,1.20
2023-05-16T12:55:28.349Z,1.45
2023-05-16T12:57:57.628Z,1.30
2023-05-16T13:00:24.627Z,1.10
2023-05-16T13:02:52.372Z,1.10
2023-05-16T13:05:20.524Z,1.50
2023-05-16T13:07:47.165Z,1.40
2023-05-16T13:10:13.877Z,0.55
2023-05-16T13:12:41.285Z,1.10
2023-05-16T13:15:09.874Z,0.90
2023-05-16T13:17:37.408Z,1.00
2023-05-16T13:20:15.144Z,1.50
2023-05-16T13:22:43.734Z,1.40
2023-05-16T13:25:11.109Z,1.27
2023-05-16T13:27:37.941Z,1.20
2023-05-16T13:30:05.012Z,1.00
2023-05-16T13:32:31.616Z,1.00
2023-05-16T13:34:58.280Z,1.80
2023-05-16T13:37:24.813Z,1.27
2023-05-16T13:39:51.436Z,1.20
2023-05-16T13:42:18.070Z,1.63
2023-05-16T13:44:44.940Z,1.73
2023-05-16T13:47:11.813Z,1.17
2023-05-16T13:49:38.980Z,1.00
2023-05-16T13:52:06.557Z,1.42
2023-05-16T13:54:33.644Z,1.35
2023-05-16T13:57:00.795Z,1.63
2023-05-16T13:59:44.699Z,1.42
2023-05-16T14:02:12.525Z,1.48
2023-05-16T14:04:39.333Z,1.88
2023-05-16T14:07:05.854Z,1.77
2023-05-16T14:09:35.155Z,2.78
2023-05-16T14:12:04.300Z,1.50
2023-05-16T14:14:30.854Z,1.30
2023-05-16T14:16:58.517Z,1.75
2023-05-16T14:19:25.386Z,1.75
2023-05-16T14:21:52.138Z,1.98
2023-05-16T14:24:18.802Z,1.30
2023-05-16T14:26:45.406Z,1.35
2023-05-16T14:29:12.938Z,2.20
2023-05-16T14:31:41.077Z,2.30
2023-05-16T14:34:07.602Z,1.35
2023-05-16T14:36:34.151Z,1.90
2023-05-16T14:39:00.732Z,1.80
2023-05-16T14:41:27.345Z,1.65
2023-05-16T14:43:55.386Z,1.55
2023-05-16T14:46:21.958Z,1.58
2023-05-16T14:48:48.579Z,1.17
2023-05-16T14:51:15.396Z,3.03
2023-05-16T14:53:41.967Z,1.77
2023-05-16T14:56:08.514Z,1.83
2023-05-16T14:58:35.083Z,1.40
2023-05-16T15:01:01.882Z,1.67
2023-05-16T15:03:28.496Z,1.73
2023-05-16T15:05:55.097Z,1.60
2023-05-16T15:08:22.302Z,2.63
2023-05-16T15:10:48.830Z,2.42
2023-05-16T15:13:15.338Z,1.60
2023-05-16T15:15:42.210Z,2.30
2023-05-16T15:18:10.605Z,1.50
2023-05-16T15:20:37.700Z,1.92
2023-05-16T15:23:04.262Z,1.77
2023-05-16T15:25:31.085Z,1.95
2023-05-16T15:27:57.759Z,1.40
2023-05-16T15:30:24.371Z,1.60
2023-05-16T15:32:51.186Z,2.15
2023-05-16T15:35:18.085Z,2.03
2023-05-16T15:37:44.580Z,1.17
2023-05-16T15:40:11.703Z,1.17
2023-05-16T15:42:38.229Z,1.70
2023-05-16T15:45:05.145Z,2.22
2023-05-16T15:47:32.085Z,1.60
2023-05-16T15:49:58.670Z,1.70
2023-05-16T15:52:25.232Z,1.95
2023-05-16T15:54:51.764Z,1.67
2023-05-16T15:57:19.129Z,1.65
2023-05-16T15:59:50.337Z,2.30
2023-05-16T16:02:16.986Z,2.10
2023-05-16T16:04:43.569Z,1.95
2023-05-16T16:07:10.838Z,2.47
2023-05-16T16:09:37.344Z,2.00
2023-05-16T16:12:04.038Z,1.70
2023-05-16T16:14:30.606Z,2.05
2023-05-16T16:16:57.261Z,1.90
2023-05-16T16:19:24.014Z,1.58
2023-05-16T16:21:50.604Z,2.20
2023-05-16T16:24:17.318Z,1.98
2023-05-16T16:26:44.824Z,2.30
2023-05-16T16:29:11.310Z,2.47
2023-05-16T16:31:38.016Z,2.92
2023-05-16T16:34:04.752Z,3.33
2023-05-16T16:36:32.322Z,3.67
2023-05-16T16:38:59.523Z,2.83
2023-05-16T16:41:26.072Z,4.32
2023-05-16T16:43:52.929Z,3.05
2023-05-16T16:46:19.522Z,4.63
2023-05-16T16:48:46.270Z,3.25
2023-05-16T16:51:12.992Z,3.60
2023-05-16T16:53:40.928Z,3.95
2023-05-16T16:56:07.545Z,3.10
2023-05-16T16:58:34.080Z,3.50
2023-05-16T17:01:00.642Z,2.58
2023-05-16T17:03:27.362Z,2.50
2023-05-16T17:05:53.899Z,3.40
2023-05-16T17:08:20.506Z,2.75
2023-05-16T17:10:47.368Z,3.17
2023-05-16T17:13:14.813Z,2.38
2023-05-16T17:15:41.478Z,2.83
2023-05-16T17:18:08.289Z,2.95
2023-05-16T17:20:35.982Z,3.08
2023-05-16T17:23:03.108Z,2.97
2023-05-16T17:25:29.958Z,2.70
2023-05-16T17:27:56.933Z,3.00
2023-05-16T17:30:23.506Z,2.22
2023-05-16T17:32:50.100Z,2.67
2023-05-16T17:35:16.779Z,2.40
2023-05-16T17:37:43.346Z,2.72
2023-05-16T17:40:12.821Z,3.05
2023-05-16T17:42:39.580Z,2.60
2023-05-16T17:45:14.096Z,4.63
2023-05-16T17:47:41.074Z,2.97
2023-05-16T17:50:09.952Z,2.83
2023-05-16T17:52:37.934Z,3.55
2023-05-16T17:55:06.224Z,3.10
2023-05-16T17:57:34.339Z,2.80
2023-05-16T18:00:01.647Z,2.15
2023-05-16T18:02:28.386Z,3.58
2023-05-16T18:04:55.851Z,2.65
2023-05-16T18:07:22.735Z,2.53
2023-05-16T18:09:49.342Z,2.45
2023-05-16T18:12:15.911Z,2.90
2023-05-16T18:14:45.127Z,2.63
2023-05-16T18:17:13.390Z,2.50
2023-05-16T18:19:40.149Z,2.72
2023-05-16T18:22:08.612Z,2.35
2023-05-16T18:24:35.234Z,2.53
2023-05-16T18:27:02.960Z,2.20
2023-05-16T18:29:30.148Z,2.28
2023-05-16T18:31:57.133Z,2.00
2023-05-16T18:34:23.857Z,2.47
2023-05-16T18:36:50.532Z,2.20
2023-05-16T18:39:18.814Z,2.22
2023-05-16T18:41:46.714Z,2.40
2023-05-16T18:44:13.324Z,2.47
2023-05-16T18:46:46.799Z,2.42
2023-05-16T18:49:14.153Z,2.67
2023-05-16T18:51:41.107Z,2.25
2023-05-16T18:54:07.685Z,2.35
2023-05-16T18:56:34.416Z,1.83
2023-05-16T18:59:01.013Z,1.52
2023-05-16T19:01:30.460Z,1.85
2023-05-16T19:03:57.155Z,2.70
2023-05-16T19:06:23.937Z,2.53
2023-05-16T19:08:50.455Z,4.65
2023-05-16T19:11:17.932Z,1.98
2023-05-16T19:13:45.630Z,2.33
2023-05-16T19:16:12.327Z,1.50
2023-05-16T19:18:39.071Z,1.83
2023-05-16T19:21:07.757Z,1.75
2023-05-16T19:23:34.373Z,1.58
2023-05-16T19:26:04.674Z,1.70
2023-05-16T19:28:31.299Z,1.83
2023-05-16T19:30:58.193Z,2.13
2023-05-16T19:33:24.825Z,1.75
2023-05-16T19:35:52.863Z,1.92
2023-05-16T19:38:22.896Z,1.77
2023-05-16T19:40:49.429Z,1.70
2023-05-16T19:43:15.967Z,1.77
2023-05-16T19:45:42.970Z,1.67
2023-05-16T19:48:09.641Z,2.15
2023-05-16T19:50:36.655Z,1.85
2023-05-16T19:53:04.260Z,1.70
2023-05-16T19:55:31.453Z,1.60
2023-05-16T19:57:58.304Z,2.40
2023-05-16T20:00:24.965Z,2.10
2023-05-16T20:02:53.124Z,2.50
2023-05-16T20:05:22.892Z,1.95
2023-05-16T20:07:50.010Z,1.67
2023-05-16T20:10:17.346Z,1.65
2023-05-16T20:12:44.766Z,1.77
2023-05-16T20:15:12.033Z,2.25
2023-05-16T20:17:39.429Z,1.60
2023-05-16T20:20:10.761Z,2.28
2023-05-16T20:22:41.537Z,2.10
2023-05-16T20:25:09.892Z,2.15
2023-05-16T20:27:36.806Z,2.33
2023-05-16T20:30:04.952Z,1.92
2023-05-16T20:32:31.541Z,2.45
2023-05-16T20:34:58.174Z,2.00
2023-05-16T20:37:26.623Z,2.50
2023-05-16T20:39:54.250Z,2.38
2023-05-16T20:42:22.905Z,1.52
2023-05-16T20:44:50.537Z,1.35
2023-05-16T20:47:17.675Z,1.77
2023-05-16T20:49:48.562Z,1.30
2023-05-16T20:52:15.077Z,1.85
2023-05-16T20:54:41.907Z,1.20
2023-05-16T20:57:08.485Z,1.60
2023-05-16T20:59:35.052Z,1.65
2023-05-16T21:02:01.566Z,1.23
2023-05-16T21:04:28.215Z,1.25
2023-05-16T21:06:54.840Z,1.60
2023-05-16T21:09:21.346Z,1.35
2023-05-16T21:11:47.965Z,1.83
2023-05-16T21:14:14.527Z,2.05
2023-05-16T21:16:41.061Z,1.65
2023-05-16T21:19:07.863Z,1.58
2023-05-16T21:21:34.483Z,1.92
2023-05-16T21:24:01.533Z,1.60
2023-05-16T21:26:33.859Z,1.50
2023-05-16T21:29:00.451Z,1.60
2023-05-16T21:31:27.091Z,1.73
2023-05-16T21:33:53.705Z,1.70
2023-05-16T21:36:28.904Z,1.58
2023-05-16T21:38:55.416Z,1.50
2023-05-16T21:41:22.347Z,1.55
2023-05-16T21:43:51.061Z,2.25
2023-05-16T21:46:17.563Z,2.15
2023-05-16T21:48:44.327Z,1.85
2023-05-16T21:51:11.044Z,1.83
2023-05-16T21:53:38.333Z,2.08
2023-05-16T21:56:06.136Z,1.63
2023-05-16T21:58:32.685Z,1.65
2023-05-16T22:00:59.183Z,2.03
2023-05-16T22:03:25.901Z,2.10
2023-05-16T22:05:58.266Z,1.90
2023-05-16T22:08:33.684Z,2.13
2023-05-16T22:13:27.282Z,3.55
2023-05-16T22:16:03.975Z,2.15
2023-05-16T22:18:31.922Z,2.00
2023-05-16T22:20:58.951Z,1.88
2023-05-16T22:23:25.650Z,2.22
2023-05-16T22:25:52.105Z,2.17
2023-05-16T22:28:18.569Z,2.90
2023-05-16T22:30:45.042Z,2.63
2023-05-16T22:33:11.630Z,2.42
2023-05-16T22:35:38.233Z,2.53
2023-05-16T22:38:05.106Z,2.67
2023-05-16T22:40:31.659Z,2.30
2023-05-16T22:42:58.144Z,2.78
2023-05-16T22:45:24.613Z,2.70
2023-05-16T22:47:51.327Z,2.95
2023-05-16T22:50:17.861Z,2.47
2023-05-16T22:52:44.381Z,3.15
2023-05-16T22:55:11.180Z,2.50
2023-05-16T22:57:37.643Z,3.05
2023-05-16T23:00:04.708Z,3.20
2023-05-16T23:02:31.763Z,2.55
2023-05-16T23:04:58.480Z,2.67
2023-05-16T23:07:25.340Z,2.78
2023-05-16T23:09:51.869Z,3.00
2023-05-16T23:12:21.017Z,3.13
2023-05-16T23:14:47.782Z,2.90
2023-05-16T23:17:14.885Z,2.90
2023-05-16T23:19:44.483Z,2.88
2023-05-16T23:22:35.597Z,2.80
2023-05-16T23:25:02.164Z,2.38
2023-05-16T23:27:28.702Z,3.15
2023-05-16T23:29:55.283Z,2.55
2023-05-16T23:32:21.966Z,2.70
2023-05-16T23:34:48.540Z,2.85
2023-05-16T23:37:15.721Z,2.90
2023-05-16T23:39:42.625Z,2.90
2023-05-16T23:42:09.152Z,3.15
2023-05-16T23:44:35.723Z,2.72
2023-05-16T23:47:02.854Z,2.85
2023-05-16T23:49:29.373Z,3.17
2023-05-16T23:51:58.185Z,2.95
2023-05-16T23:54:27.814Z,3.17
2023-05-16T23:56:54.306Z,3.10
2023-05-16T23:59:20.818Z,2.92
